sensor_id;sensor_type;location;lat;lon;timestamp;temperature;humidity
10905;DHT22;5505;51.450;9.254;2023-06-22T00:00:08;18.70;99.90
10905;DHT22;5505;51.450;9.254;2023-06-22T00:02:57;18.60;99.90
10905;DHT22;5505;51.450;9.254;2023-06-22T00:05:44;18.60;99.90
10905;DHT22;5505;51.450;9.254;2023-06-22T00:08:31;18.60;99.90
10905;DHT22;5505;51.450;9.254;2023-06-22T00:11:18;18.60;99.90
10905;DHT22;5505;51.450;9.254;2023-06-22T00:14:07;18.60;99.90
10905;DHT22;5505;51.450;9.254;2023-06-22T00:16:54;18.60;99.90
10905;DHT22;5505;51.450;9.254;2023-06-22T00:19:42;18.60;99.90
10905;DHT22;5505;51.450;9.254;2023-06-22T00:22:29;18.50;99.90
10905;DHT22;5505;51.450;9.254;2023-06-22T00:25:16;18.50;99.90
10905;DHT22;5505;51.450;9.254;2023-06-22T00:28:03;18.50;99.90
10905;DHT22;5505;51.450;9.254;2023-06-22T00:30:51;18.50;99.90
10905;DHT22;5505;51.450;9.254;2023-06-22T00:33:38;18.50;99.90
10905;DHT22;5505;51.450;9.254;2023-06-22T00:36:25;18.40;99.90
10905;DHT22;5505;51.450;9.254;2023-06-22T00:39:12;18.40;99.90
10905;DHT22;5505;51.450;9.254;2023-06-22T00:41:59;18.30;99.90
10905;DHT22;5505;51.450;9.254;2023-06-22T00:44:46;18.30;99.90
10905;DHT22;5505;51.450;9.254;2023-06-22T00:47:34;18.30;99.90
10905;DHT22;5505;51.450;9.254;2023-06-22T00:50:22;18.30;99.90
10905;DHT22;5505;51.450;9.254;2023-06-22T00:53:09;18.50;99.90
10905;DHT22;5505;51.450;9.254;2023-06-22T00:55:57;18.40;99.90
10905;DHT22;5505;51.450;9.254;2023-06-22T00:58:45;18.40;99.90
10905;DHT22;5505;51.450;9.254;2023-06-22T01:01:32;18.40;99.90
10905;DHT22;5505;51.450;9.254;2023-06-22T01:04:24;18.40;99.90
10905;DHT22;5505;51.450;9.254;2023-06-22T01:07:20;18.40;99.90
10905;DHT22;5505;51.450;9.254;2023-06-22T01:10:14;18.40;99.90
10905;DHT22;5505;51.450;9.254;2023-06-22T01:13:06;18.40;99.90
10905;DHT22;5505;51.450;9.254;2023-06-22T01:15:59;18.30;99.90
10905;DHT22;5505;51.450;9.254;2023-06-22T01:18:48;18.20;99.90
10905;DHT22;5505;51.450;9.254;2023-06-22T01:21:38;18.30;99.90
10905;DHT22;5505;51.450;9.254;2023-06-22T01:24:30;19.10;99.90
10905;DHT22;5505;51.450;9.254;2023-06-22T01:27:32;18.30;99.90
10905;DHT22;5505;51.450;9.254;2023-06-22T01:30:22;18.30;99.90
10905;DHT22;5505;51.450;9.254;2023-06-22T01:33:11;18.30;99.90
10905;DHT22;5505;51.450;9.254;2023-06-22T01:36:00;18.40;99.90
10905;DHT22;5505;51.450;9.254;2023-06-22T01:38:48;18.30;99.90
10905;DHT22;5505;51.450;9.254;2023-06-22T01:41:37;18.30;99.90
10905;DHT22;5505;51.450;9.254;2023-06-22T01:44:24;18.30;99.90
10905;DHT22;5505;51.450;9.254;2023-06-22T01:47:13;18.30;99.90
10905;DHT22;5505;51.450;9.254;2023-06-22T01:50:01;18.30;99.90
10905;DHT22;5505;51.450;9.254;2023-06-22T01:52:48;18.40;99.90
10905;DHT22;5505;51.450;9.254;2023-06-22T01:55:34;19.20;99.90
10905;DHT22;5505;51.450;9.254;2023-06-22T01:58:24;18.40;99.90
10905;DHT22;5505;51.450;9.254;2023-06-22T02:01:14;18.30;99.90
10905;DHT22;5505;51.450;9.254;2023-06-22T02:04:06;18.30;99.90
10905;DHT22;5505;51.450;9.254;2023-06-22T02:06:56;18.30;99.90
10905;DHT22;5505;51.450;9.254;2023-06-22T02:09:46;18.30;99.90
10905;DHT22;5505;51.450;9.254;2023-06-22T02:12:35;18.30;99.90
10905;DHT22;5505;51.450;9.254;2023-06-22T02:15:22;18.30;99.90
10905;DHT22;5505;51.450;9.254;2023-06-22T02:18:09;19.20;99.90
10905;DHT22;5505;51.450;9.254;2023-06-22T02:20:57;18.40;99.90
10905;DHT22;5505;51.450;9.254;2023-06-22T02:23:44;18.40;99.90
10905;DHT22;5505;51.450;9.254;2023-06-22T02:26:32;18.40;99.90
10905;DHT22;5505;51.450;9.254;2023-06-22T02:29:19;18.40;99.90
10905;DHT22;5505;51.450;9.254;2023-06-22T02:32:07;18.60;99.90
10905;DHT22;5505;51.450;9.254;2023-06-22T02:34:54;18.40;99.90
10905;DHT22;5505;51.450;9.254;2023-06-22T02:37:42;18.30;99.90
10905;DHT22;5505;51.450;9.254;2023-06-22T02:40:29;18.30;99.90
10905;DHT22;5505;51.450;9.254;2023-06-22T02:43:16;18.30;99.90
10905;DHT22;5505;51.450;9.254;2023-06-22T02:46:03;18.30;99.90
10905;DHT22;5505;51.450;9.254;2023-06-22T02:48:50;18.20;99.90
10905;DHT22;5505;51.450;9.254;2023-06-22T02:51:38;18.20;99.90
10905;DHT22;5505;51.450;9.254;2023-06-22T02:54:26;18.20;99.90
10905;DHT22;5505;51.450;9.254;2023-06-22T02:57:13;18.20;99.90
10905;DHT22;5505;51.450;9.254;2023-06-22T03:00:03;18.20;99.90
10905;DHT22;5505;51.450;9.254;2023-06-22T03:02:52;18.20;99.90
10905;DHT22;5505;51.450;9.254;2023-06-22T03:05:38;18.10;99.90
10905;DHT22;5505;51.450;9.254;2023-06-22T03:08:25;18.10;99.90
10905;DHT22;5505;51.450;9.254;2023-06-22T03:11:14;18.00;99.90
10905;DHT22;5505;51.450;9.254;2023-06-22T03:14:01;17.90;99.90
10905;DHT22;5505;51.450;9.254;2023-06-22T03:16:47;17.90;99.90
10905;DHT22;5505;51.450;9.254;2023-06-22T03:19:34;17.90;99.90
10905;DHT22;5505;51.450;9.254;2023-06-22T03:22:21;17.90;99.90
10905;DHT22;5505;51.450;9.254;2023-06-22T03:25:09;17.90;99.90
10905;DHT22;5505;51.450;9.254;2023-06-22T03:27:59;17.90;99.90
10905;DHT22;5505;51.450;9.254;2023-06-22T03:30:46;17.80;99.90
10905;DHT22;5505;51.450;9.254;2023-06-22T03:33:33;18.30;99.90
10905;DHT22;5505;51.450;9.254;2023-06-22T03:36:20;17.80;99.90
10905;DHT22;5505;51.450;9.254;2023-06-22T03:39:07;17.80;99.90
10905;DHT22;5505;51.450;9.254;2023-06-22T03:41:54;17.80;99.90
10905;DHT22;5505;51.450;9.254;2023-06-22T03:44:42;17.80;99.90
10905;DHT22;5505;51.450;9.254;2023-06-22T03:47:29;17.80;99.90
10905;DHT22;5505;51.450;9.254;2023-06-22T03:50:16;18.70;99.90
10905;DHT22;5505;51.450;9.254;2023-06-22T03:53:05;17.70;99.90
10905;DHT22;5505;51.450;9.254;2023-06-22T03:55:53;17.70;99.90
10905;DHT22;5505;51.450;9.254;2023-06-22T03:58:39;17.70;99.90
10905;DHT22;5505;51.450;9.254;2023-06-22T04:01:29;17.80;99.90
10905;DHT22;5505;51.450;9.254;2023-06-22T04:04:16;17.80;99.90
10905;DHT22;5505;51.450;9.254;2023-06-22T04:07:04;17.80;99.90
10905;DHT22;5505;51.450;9.254;2023-06-22T04:09:51;17.90;99.90
10905;DHT22;5505;51.450;9.254;2023-06-22T04:12:37;18.00;99.90
10905;DHT22;5505;51.450;9.254;2023-06-22T04:15:24;18.90;99.90
10905;DHT22;5505;51.450;9.254;2023-06-22T04:18:12;18.10;99.90
10905;DHT22;5505;51.450;9.254;2023-06-22T04:20:59;18.10;99.90
10905;DHT22;5505;51.450;9.254;2023-06-22T04:23:46;18.10;99.90
10905;DHT22;5505;51.450;9.254;2023-06-22T04:26:33;18.00;99.90
10905;DHT22;5505;51.450;9.254;2023-06-22T04:29:22;18.60;99.90
10905;DHT22;5505;51.450;9.254;2023-06-22T04:32:14;18.10;99.90
10905;DHT22;5505;51.450;9.254;2023-06-22T04:35:02;18.10;99.90
10905;DHT22;5505;51.450;9.254;2023-06-22T04:37:50;18.60;99.90
10905;DHT22;5505;51.450;9.254;2023-06-22T04:40:40;18.10;99.90
10905;DHT22;5505;51.450;9.254;2023-06-22T04:43:27;18.20;99.90
10905;DHT22;5505;51.450;9.254;2023-06-22T04:46:15;18.20;99.90
10905;DHT22;5505;51.450;9.254;2023-06-22T04:49:02;18.30;99.90
10905;DHT22;5505;51.450;9.254;2023-06-22T04:51:53;18.30;99.90
10905;DHT22;5505;51.450;9.254;2023-06-22T04:54:40;18.60;99.90
10905;DHT22;5505;51.450;9.254;2023-06-22T04:57:32;18.30;99.90
10905;DHT22;5505;51.450;9.254;2023-06-22T05:00:20;18.30;99.90
10905;DHT22;5505;51.450;9.254;2023-06-22T05:03:08;18.30;99.90
10905;DHT22;5505;51.450;9.254;2023-06-22T05:05:56;18.20;99.90
10905;DHT22;5505;51.450;9.254;2023-06-22T05:08:44;18.20;99.90
10905;DHT22;5505;51.450;9.254;2023-06-22T05:11:31;18.20;99.90
10905;DHT22;5505;51.450;9.254;2023-06-22T05:14:18;18.40;99.90
10905;DHT22;5505;51.450;9.254;2023-06-22T05:17:05;18.30;99.90
10905;DHT22;5505;51.450;9.254;2023-06-22T05:19:58;18.30;99.90
10905;DHT22;5505;51.450;9.254;2023-06-22T05:22:45;18.60;99.90
10905;DHT22;5505;51.450;9.254;2023-06-22T05:25:33;18.40;99.90
10905;DHT22;5505;51.450;9.254;2023-06-22T05:28:20;18.40;99.90
10905;DHT22;5505;51.450;9.254;2023-06-22T05:31:08;18.60;99.90
10905;DHT22;5505;51.450;9.254;2023-06-22T05:33:56;18.40;99.90
10905;DHT22;5505;51.450;9.254;2023-06-22T05:36:42;18.40;99.90
10905;DHT22;5505;51.450;9.254;2023-06-22T05:39:29;18.40;99.90
10905;DHT22;5505;51.450;9.254;2023-06-22T05:42:17;18.40;99.90
10905;DHT22;5505;51.450;9.254;2023-06-22T05:45:05;18.50;99.90
10905;DHT22;5505;51.450;9.254;2023-06-22T05:47:52;18.60;99.90
10905;DHT22;5505;51.450;9.254;2023-06-22T05:50:39;18.60;99.90
10905;DHT22;5505;51.450;9.254;2023-06-22T05:53:26;18.60;99.90
10905;DHT22;5505;51.450;9.254;2023-06-22T05:56:12;18.60;99.90
10905;DHT22;5505;51.450;9.254;2023-06-22T05:59:01;18.60;99.90
10905;DHT22;5505;51.450;9.254;2023-06-22T06:01:47;18.70;99.90
10905;DHT22;5505;51.450;9.254;2023-06-22T06:04:35;18.70;99.90
10905;DHT22;5505;51.450;9.254;2023-06-22T06:07:22;18.80;99.90
10905;DHT22;5505;51.450;9.254;2023-06-22T06:10:09;18.90;99.90
10905;DHT22;5505;51.450;9.254;2023-06-22T06:12:56;18.70;99.90
10905;DHT22;5505;51.450;9.254;2023-06-22T06:15:44;18.80;99.90
10905;DHT22;5505;51.450;9.254;2023-06-22T06:18:31;19.20;99.90
10905;DHT22;5505;51.450;9.254;2023-06-22T06:21:18;18.80;99.90
10905;DHT22;5505;51.450;9.254;2023-06-22T06:24:05;18.90;99.90
10905;DHT22;5505;51.450;9.254;2023-06-22T06:26:52;18.90;99.90
10905;DHT22;5505;51.450;9.254;2023-06-22T06:29:39;18.90;99.90
10905;DHT22;5505;51.450;9.254;2023-06-22T06:32:27;18.90;99.90
10905;DHT22;5505;51.450;9.254;2023-06-22T06:35:15;18.90;99.90
10905;DHT22;5505;51.450;9.254;2023-06-22T06:38:04;18.90;99.90
10905;DHT22;5505;51.450;9.254;2023-06-22T06:40:51;19.00;99.90
10905;DHT22;5505;51.450;9.254;2023-06-22T06:43:38;19.00;99.90
10905;DHT22;5505;51.450;9.254;2023-06-22T06:46:25;19.10;99.90
10905;DHT22;5505;51.450;9.254;2023-06-22T06:49:13;19.10;99.90
10905;DHT22;5505;51.450;9.254;2023-06-22T06:52:00;19.20;99.90
10905;DHT22;5505;51.450;9.254;2023-06-22T06:54:46;19.20;99.90
10905;DHT22;5505;51.450;9.254;2023-06-22T06:57:33;19.20;99.90
10905;DHT22;5505;51.450;9.254;2023-06-22T07:00:22;19.20;99.90
10905;DHT22;5505;51.450;9.254;2023-06-22T07:03:10;19.20;99.90
10905;DHT22;5505;51.450;9.254;2023-06-22T07:05:58;20.00;99.90
10905;DHT22;5505;51.450;9.254;2023-06-22T07:08:45;19.30;99.90
10905;DHT22;5505;51.450;9.254;2023-06-22T07:11:33;19.50;99.90
10905;DHT22;5505;51.450;9.254;2023-06-22T07:14:20;19.50;99.90
10905;DHT22;5505;51.450;9.254;2023-06-22T07:17:07;19.60;99.90
10905;DHT22;5505;51.450;9.254;2023-06-22T07:19:54;19.70;99.90
10905;DHT22;5505;51.450;9.254;2023-06-22T07:22:43;19.80;99.90
10905;DHT22;5505;51.450;9.254;2023-06-22T07:25:31;19.80;99.90
10905;DHT22;5505;51.450;9.254;2023-06-22T07:28:21;19.90;99.90
10905;DHT22;5505;51.450;9.254;2023-06-22T07:31:09;20.00;99.90
10905;DHT22;5505;51.450;9.254;2023-06-22T07:33:58;20.10;99.90
10905;DHT22;5505;51.450;9.254;2023-06-22T07:36:45;20.20;99.90
10905;DHT22;5505;51.450;9.254;2023-06-22T07:39:34;20.50;99.90
10905;DHT22;5505;51.450;9.254;2023-06-22T07:42:23;20.40;99.90
10905;DHT22;5505;51.450;9.254;2023-06-22T07:45:10;20.60;99.90
10905;DHT22;5505;51.450;9.254;2023-06-22T07:47:57;20.90;99.90
10905;DHT22;5505;51.450;9.254;2023-06-22T07:50:44;21.10;99.90
10905;DHT22;5505;51.450;9.254;2023-06-22T07:53:31;21.30;99.90
10905;DHT22;5505;51.450;9.254;2023-06-22T07:56:20;21.50;99.90
10905;DHT22;5505;51.450;9.254;2023-06-22T07:59:07;21.70;99.90
10905;DHT22;5505;51.450;9.254;2023-06-22T08:01:55;21.80;99.90
10905;DHT22;5505;51.450;9.254;2023-06-22T08:04:41;22.10;99.90
10905;DHT22;5505;51.450;9.254;2023-06-22T08:07:28;22.30;99.90
10905;DHT22;5505;51.450;9.254;2023-06-22T08:10:15;22.50;99.90
10905;DHT22;5505;51.450;9.254;2023-06-22T08:13:04;23.50;99.90
10905;DHT22;5505;51.450;9.254;2023-06-22T08:15:50;23.10;99.90
10905;DHT22;5505;51.450;9.254;2023-06-22T08:18:37;23.00;99.90
10905;DHT22;5505;51.450;9.254;2023-06-22T08:21:24;23.20;99.90
10905;DHT22;5505;51.450;9.254;2023-06-22T08:24:12;23.20;99.90
10905;DHT22;5505;51.450;9.254;2023-06-22T08:26:59;23.30;99.90
10905;DHT22;5505;51.450;9.254;2023-06-22T08:29:47;23.10;99.90
10905;DHT22;5505;51.450;9.254;2023-06-22T08:32:35;23.20;99.90
10905;DHT22;5505;51.450;9.254;2023-06-22T08:35:24;23.40;99.90
10905;DHT22;5505;51.450;9.254;2023-06-22T08:38:18;23.30;99.90
10905;DHT22;5505;51.450;9.254;2023-06-22T08:41:05;23.50;99.90
10905;DHT22;5505;51.450;9.254;2023-06-22T08:43:54;23.60;99.90
10905;DHT22;5505;51.450;9.254;2023-06-22T08:46:46;23.60;99.90
10905;DHT22;5505;51.450;9.254;2023-06-22T08:49:36;23.70;99.90
10905;DHT22;5505;51.450;9.254;2023-06-22T08:52:23;24.00;99.90
10905;DHT22;5505;51.450;9.254;2023-06-22T08:55:10;23.90;99.90
10905;DHT22;5505;51.450;9.254;2023-06-22T08:57:58;24.00;99.90
10905;DHT22;5505;51.450;9.254;2023-06-22T09:00:48;24.00;99.90
10905;DHT22;5505;51.450;9.254;2023-06-22T09:03:38;24.20;99.90
10905;DHT22;5505;51.450;9.254;2023-06-22T09:06:28;24.40;99.90
10905;DHT22;5505;51.450;9.254;2023-06-22T09:09:16;24.40;99.90
10905;DHT22;5505;51.450;9.254;2023-06-22T09:12:04;24.30;99.90
10905;DHT22;5505;51.450;9.254;2023-06-22T09:14:51;24.20;99.90
10905;DHT22;5505;51.450;9.254;2023-06-22T09:17:42;24.10;99.90
10905;DHT22;5505;51.450;9.254;2023-06-22T09:20:31;24.20;99.90
10905;DHT22;5505;51.450;9.254;2023-06-22T09:23:22;24.30;99.90
10905;DHT22;5505;51.450;9.254;2023-06-22T09:26:11;24.30;99.90
10905;DHT22;5505;51.450;9.254;2023-06-22T09:28:58;24.20;99.90
10905;DHT22;5505;51.450;9.254;2023-06-22T09:31:45;24.30;99.90
10905;DHT22;5505;51.450;9.254;2023-06-22T09:34:33;24.50;99.90
10905;DHT22;5505;51.450;9.254;2023-06-22T09:37:21;24.60;99.90
10905;DHT22;5505;51.450;9.254;2023-06-22T09:40:09;24.70;99.90
10905;DHT22;5505;51.450;9.254;2023-06-22T09:42:58;25.00;99.90
10905;DHT22;5505;51.450;9.254;2023-06-22T09:45:51;25.20;99.90
10905;DHT22;5505;51.450;9.254;2023-06-22T09:48:40;25.30;99.90
10905;DHT22;5505;51.450;9.254;2023-06-22T09:51:27;25.30;99.90
10905;DHT22;5505;51.450;9.254;2023-06-22T09:54:16;25.40;99.90
10905;DHT22;5505;51.450;9.254;2023-06-22T09:57:04;25.30;99.90
10905;DHT22;5505;51.450;9.254;2023-06-22T09:59:53;25.30;99.90
10905;DHT22;5505;51.450;9.254;2023-06-22T10:02:43;25.70;99.90
10905;DHT22;5505;51.450;9.254;2023-06-22T10:05:30;25.40;99.90
10905;DHT22;5505;51.450;9.254;2023-06-22T10:08:18;25.30;99.90
10905;DHT22;5505;51.450;9.254;2023-06-22T10:11:07;25.30;99.90
10905;DHT22;5505;51.450;9.254;2023-06-22T10:14:01;25.30;99.90
10905;DHT22;5505;51.450;9.254;2023-06-22T10:16:52;25.30;99.90
10905;DHT22;5505;51.450;9.254;2023-06-22T10:19:40;25.10;99.90
10905;DHT22;5505;51.450;9.254;2023-06-22T10:22:36;25.00;99.90
10905;DHT22;5505;51.450;9.254;2023-06-22T10:25:27;25.00;99.90
10905;DHT22;5505;51.450;9.254;2023-06-22T10:28:17;24.80;99.90
10905;DHT22;5505;51.450;9.254;2023-06-22T10:31:07;25.80;99.90
10905;DHT22;5505;51.450;9.254;2023-06-22T10:33:57;25.50;99.90
10905;DHT22;5505;51.450;9.254;2023-06-22T10:36:50;25.90;99.90
10905;DHT22;5505;51.450;9.254;2023-06-22T10:39:40;26.10;99.90
10905;DHT22;5505;51.450;9.254;2023-06-22T10:42:34;26.20;99.90
10905;DHT22;5505;51.450;9.254;2023-06-22T10:45:22;26.30;99.90
10905;DHT22;5505;51.450;9.254;2023-06-22T10:48:10;26.10;99.90
10905;DHT22;5505;51.450;9.254;2023-06-22T10:50:58;26.10;99.90
10905;DHT22;5505;51.450;9.254;2023-06-22T10:53:45;26.20;99.90
10905;DHT22;5505;51.450;9.254;2023-06-22T10:56:33;26.20;99.90
10905;DHT22;5505;51.450;9.254;2023-06-22T10:59:21;26.40;99.90
10905;DHT22;5505;51.450;9.254;2023-06-22T11:02:12;26.40;99.90
10905;DHT22;5505;51.450;9.254;2023-06-22T11:05:02;26.60;99.90
10905;DHT22;5505;51.450;9.254;2023-06-22T11:07:52;26.50;99.90
10905;DHT22;5505;51.450;9.254;2023-06-22T11:10:39;26.40;99.90
10905;DHT22;5505;51.450;9.254;2023-06-22T11:13:30;26.20;99.90
10905;DHT22;5505;51.450;9.254;2023-06-22T11:16:18;26.20;99.90
10905;DHT22;5505;51.450;9.254;2023-06-22T11:19:08;26.30;99.90
10905;DHT22;5505;51.450;9.254;2023-06-22T11:21:56;26.40;99.90
10905;DHT22;5505;51.450;9.254;2023-06-22T11:24:43;26.50;99.90
10905;DHT22;5505;51.450;9.254;2023-06-22T11:27:31;26.70;99.90
10905;DHT22;5505;51.450;9.254;2023-06-22T11:30:18;26.90;99.90
10905;DHT22;5505;51.450;9.254;2023-06-22T11:33:09;26.90;99.90
10905;DHT22;5505;51.450;9.254;2023-06-22T11:35:59;26.70;99.90
10905;DHT22;5505;51.450;9.254;2023-06-22T11:38:47;26.90;99.90
10905;DHT22;5505;51.450;9.254;2023-06-22T11:41:35;27.10;99.90
10905;DHT22;5505;51.450;9.254;2023-06-22T11:44:22;27.20;99.90
10905;DHT22;5505;51.450;9.254;2023-06-22T11:47:09;27.20;99.90
10905;DHT22;5505;51.450;9.254;2023-06-22T11:49:59;27.10;99.90
10905;DHT22;5505;51.450;9.254;2023-06-22T11:52:48;26.90;99.90
10905;DHT22;5505;51.450;9.254;2023-06-22T11:55:36;26.90;99.90
10905;DHT22;5505;51.450;9.254;2023-06-22T11:58:25;26.80;99.90
10905;DHT22;5505;51.450;9.254;2023-06-22T12:01:12;26.80;99.90
10905;DHT22;5505;51.450;9.254;2023-06-22T12:04:01;26.90;99.90
10905;DHT22;5505;51.450;9.254;2023-06-22T12:06:50;26.70;99.90
10905;DHT22;5505;51.450;9.254;2023-06-22T12:09:39;26.50;99.90
10905;DHT22;5505;51.450;9.254;2023-06-22T12:12:28;26.50;99.90
10905;DHT22;5505;51.450;9.254;2023-06-22T12:15:15;26.40;99.90
10905;DHT22;5505;51.450;9.254;2023-06-22T12:18:05;26.20;99.90
10905;DHT22;5505;51.450;9.254;2023-06-22T12:21:45;26.00;99.90
10905;DHT22;5505;51.450;9.254;2023-06-22T12:24:58;27.20;99.90
10905;DHT22;5505;51.450;9.254;2023-06-22T12:27:46;25.80;99.90
10905;DHT22;5505;51.450;9.254;2023-06-22T12:30:35;25.70;99.90
10905;DHT22;5505;51.450;9.254;2023-06-22T12:33:27;25.60;99.90
10905;DHT22;5505;51.450;9.254;2023-06-22T12:36:25;25.60;99.90
10905;DHT22;5505;51.450;9.254;2023-06-22T12:39:18;25.60;99.90
10905;DHT22;5505;51.450;9.254;2023-06-22T12:45:52;25.90;99.90
10905;DHT22;5505;51.450;9.254;2023-06-22T12:48:40;25.70;99.90
10905;DHT22;5505;51.450;9.254;2023-06-22T12:51:28;25.80;99.90
10905;DHT22;5505;51.450;9.254;2023-06-22T12:54:15;25.80;99.90
10905;DHT22;5505;51.450;9.254;2023-06-22T12:57:03;25.90;99.90
10905;DHT22;5505;51.450;9.254;2023-06-22T12:59:50;26.20;99.90
10905;DHT22;5505;51.450;9.254;2023-06-22T13:02:38;26.40;99.90
10905;DHT22;5505;51.450;9.254;2023-06-22T13:05:24;26.70;99.90
10905;DHT22;5505;51.450;9.254;2023-06-22T13:08:12;26.90;99.90
10905;DHT22;5505;51.450;9.254;2023-06-22T13:10:59;27.00;99.90
10905;DHT22;5505;51.450;9.254;2023-06-22T13:13:46;27.10;99.90
10905;DHT22;5505;51.450;9.254;2023-06-22T13:16:33;27.20;99.90
10905;DHT22;5505;51.450;9.254;2023-06-22T13:19:21;27.20;99.90
10905;DHT22;5505;51.450;9.254;2023-06-22T13:22:26;27.20;99.90
10905;DHT22;5505;51.450;9.254;2023-06-22T13:25:15;27.20;99.90
10905;DHT22;5505;51.450;9.254;2023-06-22T13:28:04;27.10;99.90
10905;DHT22;5505;51.450;9.254;2023-06-22T13:30:53;27.00;99.90
10905;DHT22;5505;51.450;9.254;2023-06-22T13:33:39;26.90;99.90
10905;DHT22;5505;51.450;9.254;2023-06-22T13:36:28;26.90;99.90
10905;DHT22;5505;51.450;9.254;2023-06-22T13:39:16;26.80;99.90
10905;DHT22;5505;51.450;9.254;2023-06-22T13:42:03;26.60;99.90
10905;DHT22;5505;51.450;9.254;2023-06-22T13:44:50;26.50;99.90
10905;DHT22;5505;51.450;9.254;2023-06-22T13:47:37;26.50;99.90
10905;DHT22;5505;51.450;9.254;2023-06-22T13:50:24;26.50;99.90
10905;DHT22;5505;51.450;9.254;2023-06-22T13:53:12;26.50;99.90
10905;DHT22;5505;51.450;9.254;2023-06-22T13:55:59;26.30;99.90
10905;DHT22;5505;51.450;9.254;2023-06-22T13:58:46;26.30;99.90
10905;DHT22;5505;51.450;9.254;2023-06-22T14:01:33;26.20;99.90
10905;DHT22;5505;51.450;9.254;2023-06-22T14:04:19;26.00;99.90
10905;DHT22;5505;51.450;9.254;2023-06-22T14:07:06;26.00;99.90
10905;DHT22;5505;51.450;9.254;2023-06-22T14:09:54;25.80;99.90
10905;DHT22;5505;51.450;9.254;2023-06-22T14:12:41;25.80;99.90
10905;DHT22;5505;51.450;9.254;2023-06-22T14:15:28;25.70;99.90
10905;DHT22;5505;51.450;9.254;2023-06-22T14:18:14;25.60;99.90
10905;DHT22;5505;51.450;9.254;2023-06-22T14:21:01;24.60;99.90
10905;DHT22;5505;51.450;9.254;2023-06-22T14:23:48;25.50;99.90
10905;DHT22;5505;51.450;9.254;2023-06-22T14:26:36;25.60;99.90
10905;DHT22;5505;51.450;9.254;2023-06-22T14:29:24;25.50;99.90
10905;DHT22;5505;51.450;9.254;2023-06-22T14:32:17;25.00;99.90
10905;DHT22;5505;51.450;9.254;2023-06-22T14:35:04;24.20;99.90
10905;DHT22;5505;51.450;9.254;2023-06-22T14:37:51;23.60;99.90
10905;DHT22;5505;51.450;9.254;2023-06-22T14:40:38;23.20;99.90
10905;DHT22;5505;51.450;9.254;2023-06-22T14:43:26;22.80;99.90
10905;DHT22;5505;51.450;9.254;2023-06-22T14:46:15;22.60;99.90
10905;DHT22;5505;51.450;9.254;2023-06-22T14:49:02;22.30;99.90
10905;DHT22;5505;51.450;9.254;2023-06-22T14:51:49;22.20;99.90
10905;DHT22;5505;51.450;9.254;2023-06-22T14:54:36;21.90;99.90
10905;DHT22;5505;51.450;9.254;2023-06-22T14:57:22;21.80;99.90
10905;DHT22;5505;51.450;9.254;2023-06-22T15:00:11;21.70;99.90
10905;DHT22;5505;51.450;9.254;2023-06-22T15:02:58;21.60;99.90
10905;DHT22;5505;51.450;9.254;2023-06-22T15:05:45;21.60;99.90
10905;DHT22;5505;51.450;9.254;2023-06-22T15:08:32;21.60;99.90
10905;DHT22;5505;51.450;9.254;2023-06-22T15:11:19;21.60;99.90
10905;DHT22;5505;51.450;9.254;2023-06-22T15:14:06;21.90;99.90
10905;DHT22;5505;51.450;9.254;2023-06-22T15:16:54;21.70;99.90
10905;DHT22;5505;51.450;9.254;2023-06-22T15:19:41;21.60;99.90
10905;DHT22;5505;51.450;9.254;2023-06-22T15:22:27;21.50;99.90
10905;DHT22;5505;51.450;9.254;2023-06-22T15:25:16;21.50;99.90
10905;DHT22;5505;51.450;9.254;2023-06-22T15:28:03;21.40;99.90
10905;DHT22;5505;51.450;9.254;2023-06-22T15:30:50;21.40;99.90
10905;DHT22;5505;51.450;9.254;2023-06-22T15:33:38;21.30;99.90
10905;DHT22;5505;51.450;9.254;2023-06-22T15:36:25;21.30;99.90
10905;DHT22;5505;51.450;9.254;2023-06-22T15:39:12;21.20;99.90
10905;DHT22;5505;51.450;9.254;2023-06-22T15:41:59;21.20;99.90
10905;DHT22;5505;51.450;9.254;2023-06-22T15:44:45;21.20;99.90
10905;DHT22;5505;51.450;9.254;2023-06-22T15:47:32;21.10;99.90
10905;DHT22;5505;51.450;9.254;2023-06-22T15:50:20;21.10;99.90
10905;DHT22;5505;51.450;9.254;2023-06-22T15:53:08;21.10;99.90
10905;DHT22;5505;51.450;9.254;2023-06-22T15:55:55;21.00;99.90
10905;DHT22;5505;51.450;9.254;2023-06-22T15:58:42;20.90;99.90
10905;DHT22;5505;51.450;9.254;2023-06-22T16:01:28;20.90;99.90
10905;DHT22;5505;51.450;9.254;2023-06-22T16:04:15;20.90;99.90
10905;DHT22;5505;51.450;9.254;2023-06-22T16:07:03;20.90;99.90
10905;DHT22;5505;51.450;9.254;2023-06-22T16:09:51;20.90;99.90
10905;DHT22;5505;51.450;9.254;2023-06-22T16:12:42;20.80;99.90
10905;DHT22;5505;51.450;9.254;2023-06-22T18:35:27;19.70;99.90
10905;DHT22;5505;51.450;9.254;2023-06-22T18:38:14;19.70;99.90
10905;DHT22;5505;51.450;9.254;2023-06-22T18:41:01;19.60;99.90
10905;DHT22;5505;51.450;9.254;2023-06-22T18:43:48;19.60;99.90
10905;DHT22;5505;51.450;9.254;2023-06-22T18:46:38;19.60;99.90
10905;DHT22;5505;51.450;9.254;2023-06-22T18:49:31;19.60;99.90
10905;DHT22;5505;51.450;9.254;2023-06-22T18:52:24;19.60;99.90
10905;DHT22;5505;51.450;9.254;2023-06-22T18:55:11;19.70;99.90
10905;DHT22;5505;51.450;9.254;2023-06-22T18:58:15;19.70;99.90
10905;DHT22;5505;51.450;9.254;2023-06-22T19:01:15;19.70;99.90
10905;DHT22;5505;51.450;9.254;2023-06-22T19:04:15;19.70;99.90
10905;DHT22;5505;51.450;9.254;2023-06-22T19:07:03;19.80;99.90
10905;DHT22;5505;51.450;9.254;2023-06-22T19:10:21;19.80;99.90
10905;DHT22;5505;51.450;9.254;2023-06-22T19:13:20;19.70;99.90
10905;DHT22;5505;51.450;9.254;2023-06-22T19:16:07;19.70;99.90
10905;DHT22;5505;51.450;9.254;2023-06-22T19:18:56;19.80;99.90
10905;DHT22;5505;51.450;9.254;2023-06-22T19:21:42;19.80;99.90
10905;DHT22;5505;51.450;9.254;2023-06-22T19:24:30;19.70;99.90
10905;DHT22;5505;51.450;9.254;2023-06-22T19:27:19;19.70;99.90
10905;DHT22;5505;51.450;9.254;2023-06-22T19:30:07;19.70;99.90
10905;DHT22;5505;51.450;9.254;2023-06-22T19:32:56;19.60;99.90
10905;DHT22;5505;51.450;9.254;2023-06-22T19:35:43;19.60;99.90
10905;DHT22;5505;51.450;9.254;2023-06-22T19:38:30;19.60;99.90
10905;DHT22;5505;51.450;9.254;2023-06-22T19:41:20;19.60;99.90
10905;DHT22;5505;51.450;9.254;2023-06-22T19:44:09;19.50;99.90
10905;DHT22;5505;51.450;9.254;2023-06-22T19:46:56;19.40;99.90
10905;DHT22;5505;51.450;9.254;2023-06-22T19:49:42;19.50;99.90
10905;DHT22;5505;51.450;9.254;2023-06-22T19:52:33;19.40;99.90
10905;DHT22;5505;51.450;9.254;2023-06-22T19:55:20;19.30;99.90
10905;DHT22;5505;51.450;9.254;2023-06-22T19:58:09;19.40;99.90
10905;DHT22;5505;51.450;9.254;2023-06-22T20:00:59;19.30;99.90
10905;DHT22;5505;51.450;9.254;2023-06-22T20:03:46;19.30;99.90
10905;DHT22;5505;51.450;9.254;2023-06-22T20:06:33;19.30;99.90
10905;DHT22;5505;51.450;9.254;2023-06-22T20:09:20;19.20;99.90
10905;DHT22;5505;51.450;9.254;2023-06-22T20:12:08;19.70;99.90
10905;DHT22;5505;51.450;9.254;2023-06-22T20:14:55;19.00;99.90
10905;DHT22;5505;51.450;9.254;2023-06-22T20:17:52;19.00;99.90
10905;DHT22;5505;51.450;9.254;2023-06-22T20:20:42;18.90;99.90
10905;DHT22;5505;51.450;9.254;2023-06-22T20:23:29;18.90;99.90